No particular awareness of the weather is required.    There are no Weather-warnings


Meteo18 Weather Cam more information Meteo18 Weather Cam


Thunder radar more information blitzortung!


Rain radar more information rain snow radar


Visit our other weather sites:

Template documentation
and downloads

And another site



Weather Underground History page Text

Daily Summary for September 2, 2017 Units:  English    Metric   Both
« Previous Day
Next Day »
Daily Weekly Monthly Yearly Custom
  High: Low: Average:
Temperature: TemperatureC °F 11.0 °F 14.8 °F
Dew Point: DewpointC °F 9.4 °F 10.6 °F
Humidity: Humidity % 52 % 77 %
Wind Speed: WindSpeedKMH mph 0.0 mph 2.8 mph
Wind Gust: WindSpeedGustKMH mph - -
Wind:- - SW
Pressure: PressurehPa in 1021.2 in -
Precipitation: 0.0 in    
Historical Graphs
 
 
Tabular Data for September 2, 2017
Time Temperature Dew Point Pressure Wind Wind Speed Wind Gust Humidity Rainfall Rate (Hourly)
TemperatureC °F DewpointC °F PressurehPa in Calm     Humidity % HourlyPrecipMM in
00:02 12.9 °F 10.6 °F 1022.2 in West 1.6 mph 3.2 mph 86 % 0.0 in
00:07 12.8 °F 10.5 °F 1022.2 in Calm   4.8 mph 86 % 0.0 in
00:12 12.7 °F 10.6 °F 1022.2 in Calm   4.8 mph 87 % 0.0 in
00:17 12.7 °F 10.6 °F 1022.2 in Calm   4.8 mph 87 % 0.0 in
00:22 12.6 °F 10.5 °F 1022.2 in Calm   4.8 mph 87 % 0.0 in
00:32 12.4 °F 10.5 °F 1022.2 in Calm   1.6 mph 88 % 0.0 in
00:37 12.2 °F 10.3 °F 1022.2 in Calm   1.6 mph 88 % 0.0 in
00:42 11.9 °F 10.1 °F 1022.2 in Calm   4.8 mph 89 % 0.0 in
00:52 11.7 °F 10.1 °F 1022.2 in Calm   4.8 mph 90 % 0.0 in
00:57 11.7 °F 10.1 °F 1022.2 in Calm   1.6 mph 90 % 0.0 in
01:02 11.6 °F 10.2 °F 1022.2 in Calm   1.6 mph 91 % 0.0 in
01:12 11.6 °F 10.2 °F 1022.2 in Calm   1.6 mph 91 % 0.0 in
01:17 11.5 °F 10.2 °F 1022.2 in Calm   1.6 mph 92 % 0.0 in
01:22 11.6 °F 10.3 °F 1022.2 in Calm   1.6 mph 92 % 0.0 in
01:27 11.6 °F 10.3 °F 1022.2 in Calm   1.6 mph 92 % 0.0 in
01:32 11.6 °F 10.3 °F 1022.2 in Calm   1.6 mph 92 % 0.0 in
01:37 11.7 °F 10.4 °F 1022.2 in Calm     92 % 0.0 in
01:42 11.6 °F 10.3 °F 1022.2 in Calm     92 % 0.0 in
01:47 11.7 °F 10.4 °F 1022.2 in Calm     92 % 0.0 in
01:52 11.7 °F 10.4 °F 1022.2 in Calm     92 % 0.0 in
01:57 11.8 °F 10.5 °F 1022.2 in Calm     92 % 0.0 in
02:02 11.8 °F 10.4 °F 1022.2 in Calm     91 % 0.0 in
02:12 11.7 °F 10.3 °F 1022.2 in Calm     91 % 0.0 in
02:17 11.8 °F 10.5 °F 1022.2 in Calm     92 % 0.0 in
02:22 11.8 °F 10.5 °F 1022.2 in Calm     92 % 0.0 in
02:32 11.8 °F 10.5 °F 1022.2 in Calm     92 % 0.0 in
02:37 11.8 °F 10.5 °F 1022.2 in Calm     92 % 0.0 in
02:42 11.8 °F 10.5 °F 1021.9 in Calm     92 % 0.0 in
02:52 11.7 °F 10.4 °F 1021.9 in Calm     92 % 0.0 in
02:57 11.6 °F 10.3 °F 1021.9 in Calm     92 % 0.0 in
03:02 11.6 °F 10.3 °F 1022.2 in Calm     92 % 0.0 in
03:07 11.7 °F 10.6 °F 1022.2 in Calm     93 % 0.0 in
03:12 11.7 °F 10.6 °F 1022.2 in Calm     93 % 0.0 in
03:17 11.6 °F 10.5 °F 1022.2 in Calm     93 % 0.0 in
03:22 11.6 °F 10.5 °F 1022.2 in Calm     93 % 0.0 in
03:27 11.6 °F 10.5 °F 1022.2 in Calm     93 % 0.0 in
03:32 11.6 °F 10.5 °F 1022.2 in Calm     93 % 0.0 in
03:37 11.6 °F 10.5 °F 1022.2 in Calm     93 % 0.0 in
03:42 11.5 °F 10.4 °F 1022.2 in Calm     93 % 0.0 in
03:47 11.4 °F 10.3 °F 1022.2 in Calm     93 % 0.0 in
03:52 11.4 °F 10.3 °F 1022.2 in Calm     93 % 0.0 in
03:57 11.3 °F 10.2 °F 1022.2 in Calm     93 % 0.0 in
04:02 11.2 °F 10.1 °F 1022.2 in Calm     93 % 0.0 in
04:12 11.2 °F 10.3 °F 1022.2 in Calm     94 % 0.0 in
04:17 11.2 °F 10.3 °F 1022.2 in Calm     94 % 0.0 in
04:22 11.2 °F 10.3 °F 1022.2 in Calm     94 % 0.0 in
04:27 11.1 °F 10.2 °F 1022.2 in Calm     94 % 0.0 in
04:32 11.1 °F 10.2 °F 1021.9 in Calm     94 % 0.0 in
04:37 11.1 °F 10.2 °F 1021.9 in Calm     94 % 0.0 in
04:42 11.1 °F 10.2 °F 1021.9 in Calm     94 % 0.0 in
04:47 11.1 °F 10.2 °F 1022.2 in Calm     94 % 0.0 in
04:52 11.1 °F 10.2 °F 1021.9 in Calm     94 % 0.0 in
04:57 11.1 °F 10.2 °F 1021.9 in Calm     94 % 0.0 in
05:02 11.0 °F 10.1 °F 1021.9 in Calm     94 % 0.0 in
05:12 11.1 °F 10.2 °F 1021.9 in Calm     94 % 0.0 in
05:17 11.1 °F 10.2 °F 1021.9 in Calm     94 % 0.0 in
05:27 11.1 °F 10.0 °F 1021.9 in Calm     93 % 0.0 in
05:32 11.1 °F 10.0 °F 1021.9 in West 1.6 mph   93 % 0.0 in
05:37 11.2 °F 10.1 °F 1021.9 in Calm   3.2 mph 93 % 0.0 in
05:42 11.3 °F 10.0 °F 1021.9 in West 1.6 mph 3.2 mph 92 % 0.0 in
05:52 11.4 °F 10.1 °F 1021.9 in WNW 3.2 mph 3.2 mph 92 % 0.0 in
05:57 11.7 °F 10.3 °F 1021.9 in West 1.6 mph 11.3 mph 91 % 0.0 in
06:02 11.8 °F 10.2 °F 1021.9 in WNW 3.2 mph 11.3 mph 90 % 0.0 in
06:07 11.9 °F 10.1 °F 1021.9 in NW 1.6 mph 11.3 mph 89 % 0.0 in
06:12 12.0 °F 10.2 °F 1021.9 in WNW 4.8 mph 11.3 mph 89 % 0.0 in
06:17 12.1 °F 10.2 °F 1021.9 in NNW 3.2 mph 12.9 mph 88 % 0.0 in
06:22 12.1 °F 10.2 °F 1021.9 in WNW 3.2 mph 12.9 mph 88 % 0.0 in
06:32 12.1 °F 10.2 °F 1021.6 in NW 3.2 mph 11.3 mph 88 % 0.0 in
06:37 12.1 °F 10.2 °F 1021.6 in NNW 3.2 mph 11.3 mph 88 % 0.0 in
06:42 12.1 °F 10.2 °F 1021.6 in NE 4.8 mph 9.7 mph 88 % 0.0 in
06:47 12.1 °F 10.3 °F 1021.9 in NNW 3.2 mph 9.7 mph 89 % 0.0 in
06:52 12.0 °F 10.2 °F 1021.9 in NNW 1.6 mph 8.0 mph 89 % 0.0 in
07:02 12.0 °F 10.2 °F 1021.9 in NW 1.6 mph 4.8 mph 89 % 0.0 in
07:07 11.9 °F 10.1 °F 1021.9 in NNW 1.6 mph 4.8 mph 89 % 0.0 in
07:12 11.9 °F 10.1 °F 1021.9 in Calm   4.8 mph 89 % 0.0 in
07:17 11.9 °F 10.1 °F 1021.9 in NW 1.6 mph 3.2 mph 89 % 0.0 in
07:22 11.9 °F 10.1 °F 1021.9 in Calm   1.6 mph 89 % 0.0 in
07:27 11.9 °F 10.1 °F 1021.9 in Calm   1.6 mph 89 % 0.0 in
07:32 11.9 °F 10.1 °F 1021.9 in Calm   1.6 mph 89 % 0.0 in
07:37 11.9 °F 10.1 °F 1021.9 in Calm     89 % 0.0 in
07:42 11.8 °F 10.2 °F 1021.9 in Calm     90 % 0.0 in
07:47 11.9 °F 10.3 °F 1021.9 in Calm     90 % 0.0 in
07:52 11.9 °F 10.3 °F 1021.9 in Calm   1.6 mph 90 % 0.0 in
07:57 11.9 °F 10.3 °F 1021.9 in Calm   3.2 mph 90 % 0.0 in
08:02 12.0 °F 10.4 °F 1021.9 in Calm   3.2 mph 90 % 0.0 in
08:07 12.1 °F 10.5 °F 1021.9 in Calm   1.6 mph 90 % 0.0 in
08:12 12.1 °F 10.5 °F 1021.9 in Calm   1.6 mph 90 % 0.0 in
08:17 12.1 °F 10.5 °F 1021.9 in WNW 1.6 mph 1.6 mph 90 % 0.0 in
08:22 12.2 °F 10.6 °F 1021.9 in Calm   1.6 mph 90 % 0.0 in
08:27 12.2 °F 10.6 °F 1021.9 in Calm   1.6 mph 90 % 0.0 in
08:32 12.3 °F 10.7 °F 1021.9 in NW 1.6 mph 3.2 mph 90 % 0.0 in
08:37 12.3 °F 10.7 °F 1021.9 in Calm   3.2 mph 90 % 0.0 in
08:42 12.4 °F 10.8 °F 1022.2 in Calm   3.2 mph 90 % 0.0 in
08:47 12.4 °F 10.8 °F 1022.2 in Calm   3.2 mph 90 % 0.0 in
08:52 12.6 °F 10.8 °F 1022.2 in WNW 1.6 mph 1.6 mph 89 % 0.0 in
08:57 12.7 °F 10.9 °F 1022.2 in Calm   3.2 mph 89 % 0.0 in
09:02 12.8 °F 11.0 °F 1022.2 in Calm   3.2 mph 89 % 0.0 in
09:12 13.1 °F 11.0 °F 1022.2 in Calm   1.6 mph 87 % 0.0 in
09:17 13.2 °F 11.1 °F 1022.2 in Calm   1.6 mph 87 % 0.0 in
09:22 13.3 °F 11.0 °F 1022.6 in Calm   1.6 mph 86 % 0.0 in
09:27 13.4 °F 11.1 °F 1022.2 in Calm   1.6 mph 86 % 0.0 in
09:32 13.7 °F 11.4 °F 1022.2 in Calm   1.6 mph 86 % 0.0 in
09:37 13.7 °F 11.0 °F 1022.2 in Calm   1.6 mph 84 % 0.0 in
09:42 13.9 °F 11.2 °F 1022.6 in Calm   6.4 mph 84 % 0.0 in
09:47 14.2 °F 11.5 °F 1022.6 in Calm   6.4 mph 84 % 0.0 in
09:52 14.3 °F 11.3 °F 1022.6 in West 3.2 mph 6.4 mph 82 % 0.0 in
09:57 14.4 °F 11.4 °F 1022.6 in NW 4.8 mph 4.8 mph 82 % 0.0 in
10:02 14.4 °F 11.4 °F 1022.6 in NNE 1.6 mph 6.4 mph 82 % 0.0 in
10:07 14.6 °F 11.6 °F 1022.6 in North 1.6 mph 9.7 mph 82 % 0.0 in
10:12 14.6 °F 11.7 °F 1022.6 in NE 3.2 mph 11.3 mph 83 % 0.0 in
10:17 14.6 °F 11.6 °F 1022.6 in North 3.2 mph 11.3 mph 82 % 0.0 in
10:22 14.5 °F 11.5 °F 1022.6 in NNW 6.4 mph 11.3 mph 82 % 0.0 in
10:27 14.6 °F 11.6 °F 1022.6 in WNW 1.6 mph 9.7 mph 82 % 0.0 in
10:32 14.7 °F 11.7 °F 1022.9 in NNE 1.6 mph 8.0 mph 82 % 0.0 in
10:37 15.0 °F 11.8 °F 1022.9 in North 3.2 mph 6.4 mph 81 % 0.0 in
10:42 15.2 °F 12.0 °F 1022.9 in NE 9.7 mph 9.7 mph 81 % 0.0 in
10:47 15.3 °F 11.9 °F 1022.9 in NNE 8.0 mph 11.3 mph 80 % 0.0 in
10:52 15.2 °F 11.8 °F 1022.9 in NNE 8.0 mph 17.7 mph 80 % 0.0 in
10:57 15.1 °F 11.7 °F 1022.9 in NNE 4.8 mph 17.7 mph 80 % 0.0 in
11:02 15.3 °F 12.2 °F 1022.9 in Calm   17.7 mph 82 % 0.0 in
11:07 15.5 °F 11.9 °F 1022.9 in NNW 4.8 mph 12.9 mph 79 % 0.0 in
11:12 15.5 °F 11.9 °F 1022.9 in WNW 1.6 mph 11.3 mph 79 % 0.0 in
11:17 15.3 °F 11.5 °F 1022.9 in NE 8.0 mph 11.3 mph 78 % 0.0 in
11:22 15.3 °F 11.7 °F 1022.9 in Calm   9.7 mph 79 % 0.0 in
11:27 15.5 °F 11.9 °F 1022.9 in NNE 1.6 mph 9.7 mph 79 % 0.0 in
11:32 15.6 °F 11.8 °F 1022.9 in Calm   9.7 mph 78 % 0.0 in
11:37 15.7 °F 11.5 °F 1022.9 in NNE 4.8 mph 4.8 mph 76 % 0.0 in
11:42 15.7 °F 11.5 °F 1022.9 in NE 4.8 mph 9.7 mph 76 % 0.0 in
11:47 15.9 °F 11.3 °F 1022.9 in ENE 4.8 mph 9.7 mph 74 % 0.0 in
11:52 16.2 °F 11.8 °F 1022.9 in East 3.2 mph 9.7 mph 75 % 0.0 in
11:57 16.6 °F 11.5 °F 1022.9 in NNE 3.2 mph 9.7 mph 72 % 0.0 in
12:02 16.8 °F 12.3 °F 1022.9 in East 3.2 mph 8.0 mph 75 % 0.0 in
12:07 16.9 °F 11.8 °F 1022.9 in Calm   8.0 mph 72 % 0.0 in
12:12 16.6 °F 11.9 °F 1022.9 in Calm   6.4 mph 74 % 0.0 in
12:17 16.5 °F 12.1 °F 1022.6 in Calm   4.8 mph 75 % 0.0 in
12:22 16.3 °F 11.5 °F 1022.6 in Calm   4.8 mph 73 % 0.0 in
12:27 16.2 °F 11.6 °F 1022.6 in Calm   4.8 mph 74 % 0.0 in
12:32 16.2 °F 11.6 °F 1022.6 in Calm   6.4 mph 74 % 0.0 in
12:37 16.3 °F 11.2 °F 1022.6 in Calm   6.4 mph 72 % 0.0 in
12:42 16.3 °F 11.5 °F 1022.6 in NNW 1.6 mph 6.4 mph 73 % 0.0 in
12:47 16.3 °F 11.2 °F 1022.6 in WNW 1.6 mph 6.4 mph 72 % 0.0 in
12:52 16.8 °F 11.7 °F 1022.6 in Calm   4.8 mph 72 % 0.0 in
12:57 17.0 °F 11.5 °F 1022.2 in NE 4.8 mph 4.8 mph 70 % 0.0 in
13:02 17.3 °F 12.2 °F 1022.2 in WNW 4.8 mph 6.4 mph 72 % 0.0 in
13:07 17.4 °F 11.7 °F 1022.2 in WNW 3.2 mph 8.0 mph 69 % 0.0 in
13:12 17.6 °F 11.8 °F 1022.2 in West 4.8 mph 11.3 mph 69 % 0.0 in
13:17 17.9 °F 12.1 °F 1022.2 in NNW 1.6 mph 11.3 mph 69 % 0.0 in
13:22 17.9 °F 10.8 °F 1022.2 in NNW 6.4 mph 11.3 mph 63 % 0.0 in
13:27 17.7 °F 10.8 °F 1022.2 in WNW 4.8 mph 17.7 mph 64 % 0.0 in
13:32 17.9 °F 10.8 °F 1022.2 in WNW 3.2 mph 17.7 mph 63 % 0.0 in
13:37 18.3 °F 10.4 °F 1022.2 in NNW 4.8 mph 17.7 mph 60 % 0.0 in
13:42 18.3 °F 10.4 °F 1021.9 in WNW 1.6 mph 14.5 mph 60 % 0.0 in
13:47 18.6 °F 10.9 °F 1021.9 in NNE 6.4 mph 14.5 mph 61 % 0.0 in
13:52 18.4 °F 10.7 °F 1021.9 in NE 8.0 mph 14.5 mph 61 % 0.0 in
13:57 18.2 °F 10.8 °F 1021.9 in NW 1.6 mph 19.3 mph 62 % 0.0 in
14:02 18.6 °F 10.7 °F 1021.9 in NNW 4.8 mph 19.3 mph 60 % 0.0 in
14:07 18.9 °F 10.2 °F 1021.9 in WNW 8.0 mph 19.3 mph 57 % 0.0 in
14:12 19.1 °F 9.8 °F 1021.9 in WNW 6.4 mph 14.5 mph 55 % 0.0 in
14:17 19.2 °F 9.7 °F 1021.9 in NW 8.0 mph 16.1 mph 54 % 0.0 in
14:27 19.5 °F 9.9 °F 1021.6 in NW 1.6 mph 19.3 mph 54 % 0.0 in
14:32 19.8 °F 10.2 °F 1021.6 in NNW 6.4 mph 19.3 mph 54 % 0.0 in
14:42 19.6 °F 9.5 °F 1021.6 in North 9.7 mph 19.3 mph 52 % 0.0 in
14:47 19.1 °F 10.1 °F 1021.6 in NW 14.5 mph 19.3 mph 56 % 0.0 in
14:52 18.3 °F 10.4 °F 1021.6 in WNW 6.4 mph 19.3 mph 60 % 0.0 in
14:57 17.6 °F 10.0 °F 1021.6 in NW 9.7 mph 25.7 mph 61 % 0.0 in
15:02 17.1 °F 9.5 °F 1021.9 in WNW 24.1 mph 25.7 mph 61 % 0.0 in
15:12 16.2 °F 9.8 °F 1021.9 in WSW 11.3 mph 27.4 mph 66 % 0.0 in
15:17 16.0 °F 10.1 °F 1021.9 in WNW 6.4 mph 27.4 mph 68 % 0.0 in
15:22 16.1 °F 10.2 °F 1021.9 in West 14.5 mph 22.5 mph 68 % 0.0 in
15:27 16.1 °F 10.2 °F 1021.9 in NNE 11.3 mph 25.7 mph 68 % 0.0 in
15:32 16.2 °F 10.3 °F 1021.6 in NNW 14.5 mph 25.7 mph 68 % 0.0 in
15:37 16.6 °F 10.4 °F 1021.6 in WNW 8.0 mph 25.7 mph 67 % 0.0 in
15:42 17.2 °F 11.2 °F 1021.9 in West 9.7 mph 22.5 mph 68 % 0.0 in
15:47 17.7 °F 11.0 °F 1021.6 in WNW 8.0 mph 22.5 mph 65 % 0.0 in
15:52 18.1 °F 10.2 °F 1021.6 in SW 6.4 mph 24.1 mph 60 % 0.0 in
15:57 18.3 °F 10.4 °F 1021.6 in WNW 14.5 mph 24.1 mph 60 % 0.0 in
16:02 18.4 °F 10.0 °F 1021.6 in WSW 12.9 mph 24.1 mph 58 % 0.0 in
16:07 18.4 °F 10.2 °F 1021.6 in NNW 11.3 mph 22.5 mph 59 % 0.0 in
16:12 18.7 °F 10.8 °F 1021.6 in WNW 11.3 mph 24.1 mph 60 % 0.0 in
16:17 18.7 °F 10.8 °F 1021.6 in North 6.4 mph 24.1 mph 60 % 0.0 in
16:22 19.0 °F 10.8 °F 1021.6 in WSW 9.7 mph 24.1 mph 59 % 0.0 in
16:32 19.1 °F 10.4 °F 1021.2 in WNW 3.2 mph 17.7 mph 57 % 0.0 in
16:37 19.3 °F 11.1 °F 1021.2 in WSW 11.3 mph 17.7 mph 59 % 0.0 in
16:42 19.0 °F 11.3 °F 1021.2 in WNW 8.0 mph 16.1 mph 61 % 0.0 in
16:47 19.0 °F 9.8 °F 1021.6 in NNW 9.7 mph 22.5 mph 55 % 0.0 in
16:52 18.6 °F 9.4 °F 1021.6 in WNW 16.1 mph 22.5 mph 55 % 0.0 in
16:57 18.3 °F 9.6 °F 1021.6 in WNW 12.9 mph 22.5 mph 57 % 0.0 in
17:02 18.6 °F 10.4 °F 1021.6 in North 6.4 mph 22.5 mph 59 % 0.0 in
17:07 18.9 °F 10.5 °F 1021.6 in North 8.0 mph 22.5 mph 58 % 0.0 in
17:12 19.0 °F 10.5 °F 1021.6 in WNW 12.9 mph 20.9 mph 58 % 0.0 in
17:17 19.3 °F 10.8 °F 1021.6 in NNW 12.9 mph 17.7 mph 58 % 0.0 in
17:22 19.3 °F 10.6 °F 1021.6 in WNW 11.3 mph 17.7 mph 57 % 0.0 in
17:27 19.6 °F 10.3 °F 1021.6 in NW 6.4 mph 19.3 mph 55 % 0.0 in
17:32 19.7 °F 9.9 °F 1021.6 in NNE 8.0 mph 19.3 mph 53 % 0.0 in
17:37 19.5 °F 10.2 °F 1021.6 in North 6.4 mph 19.3 mph 55 % 0.0 in
17:42 18.8 °F 10.9 °F 1021.6 in NW 9.7 mph 25.7 mph 60 % 0.0 in
17:47 17.9 °F 10.5 °F 1021.6 in NE 8.0 mph 25.7 mph 62 % 0.0 in
17:52 17.5 °F 10.6 °F 1021.6 in NNE 11.3 mph 25.7 mph 64 % 0.0 in
17:57 17.3 °F 10.9 °F 1021.6 in ENE 11.3 mph 22.5 mph 66 % 0.0 in
18:02 17.4 °F 11.0 °F 1021.6 in ENE 4.8 mph 22.5 mph 66 % 0.0 in
18:07 17.8 °F 10.9 °F 1021.6 in NE 11.3 mph 22.5 mph 64 % 0.0 in
18:12 17.9 °F 10.8 °F 1021.6 in NE 1.6 mph 17.7 mph 63 % 0.0 in
18:17 18.3 °F 10.9 °F 1021.6 in North 6.4 mph 12.9 mph 62 % 0.0 in
18:22 18.7 °F 10.8 °F 1021.6 in NE 6.4 mph 12.9 mph 60 % 0.0 in
18:27 18.8 °F 10.4 °F 1021.6 in NE 1.6 mph 11.3 mph 58 % 0.0 in
18:32 18.9 °F 11.0 °F 1021.2 in NE 3.2 mph 11.3 mph 60 % 0.0 in
18:42 18.6 °F 11.2 °F 1021.6 in NNW 4.8 mph 17.7 mph 62 % 0.0 in
18:47 18.6 °F 10.9 °F 1021.6 in NNW 4.8 mph 17.7 mph 61 % 0.0 in
18:57 18.6 °F 10.7 °F 1021.6 in NE 11.3 mph 12.9 mph 60 % 0.0 in
19:02 18.5 °F 10.3 °F 1021.2 in NE 8.0 mph 12.9 mph 59 % 0.0 in
19:07 18.5 °F 11.1 °F 1021.2 in ENE 4.8 mph 12.9 mph 62 % 0.0 in
19:12 18.4 °F 10.7 °F 1021.2 in Calm   12.9 mph 61 % 0.0 in
19:17 18.6 °F 10.9 °F 1021.2 in NE 1.6 mph 8.0 mph 61 % 0.0 in
19:22 18.6 °F 10.7 °F 1021.6 in ENE 1.6 mph 6.4 mph 60 % 0.0 in
19:27 18.6 °F 10.9 °F 1021.2 in North 3.2 mph 4.8 mph 61 % 0.0 in
19:32 18.6 °F 10.9 °F 1021.2 in Calm   4.8 mph 61 % 0.0 in
19:37 18.7 °F 11.0 °F 1021.2 in Calm   4.8 mph 61 % 0.0 in
19:42 18.8 °F 10.4 °F 1021.2 in NW 3.2 mph 4.8 mph 58 % 0.0 in
19:47 18.6 °F 9.9 °F 1021.2 in North 3.2 mph 6.4 mph 57 % 0.0 in
19:52 18.4 °F 9.7 °F 1021.2 in Calm   6.4 mph 57 % 0.0 in
19:57 18.3 °F 9.9 °F 1021.2 in Calm   6.4 mph 58 % 0.0 in
20:02 18.1 °F 9.7 °F 1021.2 in Calm   4.8 mph 58 % 0.0 in
20:07 17.8 °F 9.7 °F 1021.2 in Calm   1.6 mph 59 % 0.0 in
20:12 17.6 °F 10.2 °F 1021.6 in Calm   1.6 mph 62 % 0.0 in
20:17 17.2 °F 10.6 °F 1021.6 in Calm   1.6 mph 65 % 0.0 in
20:22 16.9 °F 10.7 °F 1021.6 in Calm     67 % 0.0 in
20:27 16.6 °F 10.9 °F 1021.6 in Calm     69 % 0.0 in
20:32 16.4 °F 10.9 °F 1021.6 in Calm     70 % 0.0 in
20:37 16.2 °F 10.7 °F 1021.6 in Calm     70 % 0.0 in
20:42 15.8 °F 10.6 °F 1021.6 in Calm     71 % 0.0 in
20:47 15.6 °F 10.6 °F 1021.6 in Calm     72 % 0.0 in
20:52 15.2 °F 10.4 °F 1021.6 in Calm     73 % 0.0 in
20:57 14.9 °F 10.5 °F 1021.6 in Calm     75 % 0.0 in
21:02 14.7 °F 10.3 °F 1021.6 in Calm     75 % 0.0 in
21:07 14.4 °F 10.2 °F 1021.9 in West 3.2 mph   76 % 0.0 in
21:12 14.4 °F 10.2 °F 1021.9 in Calm   8.0 mph 76 % 0.0 in
21:17 14.4 °F 10.2 °F 1021.9 in WSW 1.6 mph 8.0 mph 76 % 0.0 in
21:22 14.6 °F 10.2 °F 1021.9 in NW 1.6 mph 8.0 mph 75 % 0.0 in
21:27 15.2 °F 10.4 °F 1021.9 in NNW 3.2 mph 8.0 mph 73 % 0.0 in
21:32 15.5 °F 10.3 °F 1021.9 in NNW 3.2 mph 8.0 mph 71 % 0.0 in
21:37 15.6 °F 10.4 °F 1021.9 in Calm   6.4 mph 71 % 0.0 in
21:42 15.4 °F 10.2 °F 1021.9 in WNW 1.6 mph 6.4 mph 71 % 0.0 in
21:52 15.1 °F 10.1 °F 1021.9 in Calm   3.2 mph 72 % 0.0 in
21:57 15.0 °F 10.2 °F 1021.9 in NNW 1.6 mph 3.2 mph 73 % 0.0 in
22:02 14.7 °F 10.1 °F 1021.9 in WNW 3.2 mph 3.2 mph 74 % 0.0 in
22:07 14.6 °F 10.4 °F 1021.9 in Calm   4.8 mph 76 % 0.0 in
22:12 14.6 °F 10.4 °F 1021.9 in Calm   4.8 mph 76 % 0.0 in
22:17 14.6 °F 10.4 °F 1021.9 in Calm   4.8 mph 76 % 0.0 in
22:22 14.6 °F 10.6 °F 1021.9 in Calm   4.8 mph 77 % 0.0 in
22:27 14.6 °F 10.8 °F 1021.9 in Calm   3.2 mph 78 % 0.0 in
22:32 14.6 °F 11.0 °F 1021.9 in NW 1.6 mph 3.2 mph 79 % 0.0 in
22:37 14.6 °F 11.2 °F 1021.9 in Calm   1.6 mph 80 % 0.0 in
22:42 14.5 °F 11.1 °F 1021.9 in Calm   1.6 mph 80 % 0.0 in
22:47 14.4 °F 11.0 °F 1021.9 in Calm   1.6 mph 80 % 0.0 in
22:52 14.2 °F 11.0 °F 1021.9 in Calm   1.6 mph 81 % 0.0 in
22:57 14.0 °F 10.8 °F 1021.9 in Calm   1.6 mph 81 % 0.0 in
23:02 13.7 °F 10.5 °F 1021.9 in WNW 3.2 mph 3.2 mph 81 % 0.0 in
23:07 13.5 °F 10.5 °F 1021.9 in Calm   3.2 mph 82 % 0.0 in
23:12 13.4 °F 10.4 °F 1021.9 in Calm   3.2 mph 82 % 0.0 in
23:17 13.7 °F 10.5 °F 1021.9 in Calm   3.2 mph 81 % 0.0 in
23:22 13.6 °F 10.4 °F 1021.9 in WNW 1.6 mph 1.6 mph 81 % 0.0 in
23:27 13.2 °F 10.2 °F 1021.9 in WNW 1.6 mph 1.6 mph 82 % 0.0 in
23:32 12.9 °F 10.1 °F 1021.9 in WNW 3.2 mph 3.2 mph 83 % 0.0 in
23:42 12.8 °F 10.0 °F 1021.9 in Calm   3.2 mph 83 % 0.0 in
23:47 12.9 °F 9.7 °F 1021.6 in Calm   3.2 mph 81 % 0.0 in
23:52 13.0 °F 9.8 °F 1021.6 in Calm   1.6 mph 81 % 0.0 in
23:57 12.9 °F 9.5 °F 1021.9 in Calm     80 % 0.0 in
Meteo18
Compliments of Weather Underground - 4 mb

Script developed by  Jim McMurry - jmcmurry@mwt.net Adapted for the template by  Wim van der Kuil - Leuven-Template.eu

You find our weather info also at:

European Weather Network

Weather Underground

Equipment we use:

Weather-station
Davis Vue

Weather-program
Meteobridge

Weather-server
Raspberry PI 2 B+

Provider
1 and 1

Davis Vue

Meteobridge

Raspberry PI 2 B+

1 and 1